Time;durP1;ratioP1;P1;durP2;ratioP2;P2;SDS_P1;SDS_P2;PMS_P1;PMS_P2;Temp;Humidity;BMP_temperature;BMP_pressure;BME280_temperature;BME280_humidity;BME280_pressure;Samples;Min_cycle;Max_cycle;Signal;HPM_P1;HPM_P2
2022/08/20 00:00:47;;;;;;;6.03;4.13;;;;;;;18.85;86.99;101440.50;5065102;28;20036;-76
2022/08/20 00:03:17;;;;;;;8.35;4.28;;;;;;;18.85;87.13;101435.22;5049417;28;20024;-76
2022/08/20 00:05:51;;;;;;;7.13;4.53;;;;;;;18.84;87.08;101435.31;5064294;28;20108;-76
2022/08/20 00:08:18;;;;;;;8.60;4.65;;;;;;;18.83;87.00;101437.09;5067280;28;20028;-76
2022/08/20 00:10:44;;;;;;;7.55;4.18;;;;;;;18.83;87.09;101437.09;5065185;28;20045;-77
2022/08/20 00:13:14;;;;;;;8.75;4.53;;;;;;;18.82;87.39;101440.66;5065460;28;20035;-77
2022/08/20 00:15:39;;;;;;;6.20;4.65;;;;;;;18.82;87.97;101440.66;5063690;28;20042;-76
2022/08/20 00:18:06;;;;;;;6.88;4.93;;;;;;;18.82;87.88;101440.66;5066206;28;20033;-77
2022/08/20 00:20:35;;;;;;;7.90;5.10;;;;;;;18.83;88.53;101441.50;5065681;28;20038;-76
2022/08/20 00:23:02;;;;;;;9.05;4.55;;;;;;;18.83;88.19;101437.09;5068666;28;20104;-77
2022/08/20 00:25:28;;;;;;;7.15;4.93;;;;;;;18.83;88.67;101433.59;5051559;28;20093;-77
2022/08/20 00:27:54;;;;;;;5.78;4.50;;;;;;;18.82;88.82;101438.00;5063756;28;20407;-77
2022/08/20 00:30:21;;;;;;;6.95;4.75;;;;;;;18.83;88.66;101442.34;5063363;28;20033;-77
2022/08/20 00:32:50;;;;;;;6.97;5.13;;;;;;;18.83;88.93;101436.25;5068291;28;20107;-77
2022/08/20 00:35:18;;;;;;;7.13;5.18;;;;;;;18.83;88.84;101436.25;5066356;28;20382;-76
2022/08/20 00:37:44;;;;;;;8.15;5.63;;;;;;;18.82;89.06;101438.00;5067466;28;20039;-76
2022/08/20 00:40:12;;;;;;;8.48;5.45;;;;;;;18.83;89.52;101441.50;5066540;28;20386;-76
2022/08/20 00:42:43;;;;;;;7.28;5.85;;;;;;;18.81;89.45;101438.94;5066928;28;20531;-77
2022/08/20 00:45:09;;;;;;;;;;;;;;;18.87;87.57;101441.28;5070594;28;20039;-76
2022/08/20 00:47:36;;;;;;;7.72;5.63;;;;;;;18.85;89.75;101434.38;5053442;28;19919;-77
2022/08/20 00:50:05;;;;;;;8.18;6.25;;;;;;;18.82;90.03;101424.84;5061372;28;20029;-76
2022/08/20 00:52:30;;;;;;;9.40;6.30;;;;;;;18.80;90.08;101424.06;5062073;28;20032;-77
2022/08/20 00:54:59;;;;;;;9.45;6.25;;;;;;;18.82;90.21;101430.09;5062007;28;20021;-77
2022/08/20 00:57:53;;;;;;;7.38;5.80;;;;;;;18.83;90.40;101428.34;5062557;28;20032;-77
2022/08/20 01:00:26;;;;;;;8.23;5.90;;;;;;;18.82;90.19;101432.75;5045469;28;20051;-78
2022/08/20 01:02:53;;;;;;;8.05;5.68;;;;;;;18.82;89.86;101432.75;5063321;28;20107;-77
2022/08/20 01:05:20;;;;;;;7.53;5.93;;;;;;;18.81;90.35;101428.41;5061194;28;20043;-77
2022/08/20 01:07:47;;;;;;;9.98;6.30;;;;;;;18.81;90.50;101420.50;5061139;28;20406;-78
2022/08/20 01:10:20;;;;;;;8.07;5.65;;;;;;;18.80;90.81;101424.91;5043869;28;20041;-77
2022/08/20 01:12:47;;;;;;;8.43;6.28;;;;;;;18.78;90.83;101428.59;5061164;28;20020;-77
2022/08/20 01:15:16;;;;;;;7.70;6.00;;;;;;;18.77;90.56;101432.16;5060495;28;20027;-77
2022/08/20 01:17:46;;;;;;;8.38;6.32;;;;;;;18.77;91.00;101432.97;5062232;28;20025;-77
2022/08/20 01:20:19;;;;;;;7.88;6.22;;;;;;;18.78;90.79;101439.97;5063090;28;20532;-77
2022/08/20 01:25:47;;;;;;;7.75;6.13;;;;;;;18.79;91.31;101430.25;5062180;28;20120;-77
2022/08/20 01:28:14;;;;;;;7.75;6.13;;;;;;;18.79;91.01;101427.63;5062184;28;20024;-77
2022/08/20 01:30:40;;;;;;;9.68;6.30;;;;;;;18.78;91.28;101425.94;5061263;28;20027;-77
2022/08/20 01:33:06;;;;;;;7.80;6.20;;;;;;;18.78;90.98;101431.22;5060028;28;20028;-77
2022/08/20 01:35:36;;;;;;;9.15;6.25;;;;;;;18.77;91.34;101430.34;5040151;28;20047;-78
2022/08/20 01:38:01;;;;;;;7.63;6.10;;;;;;;18.76;91.34;101431.28;5060318;28;20480;-78
2022/08/20 01:40:47;;;;;;;9.52;6.50;;;;;;;18.77;91.47;101432.97;5066178;28;20024;-77
2022/08/20 01:43:12;;;;;;;8.63;6.18;;;;;;;18.75;91.53;101429.56;5045415;28;20052;-77
2022/08/20 01:45:38;;;;;;;8.38;6.10;;;;;;;18.74;91.44;101438.41;5059906;28;20072;-77
2022/08/20 01:48:04;;;;;;;8.57;6.40;;;;;;;18.76;91.29;101433.06;5058958;28;20035;-77
2022/08/20 01:50:33;;;;;;;9.07;6.10;;;;;;;18.76;91.96;101433.06;5059999;28;20036;-77
2022/08/20 01:53:03;;;;;;;8.18;6.03;;;;;;;18.78;91.74;101433.84;5057423;28;20115;-77
2022/08/20 01:55:29;;;;;;;7.53;5.90;;;;;;;18.75;91.52;101428.72;5065118;28;20036;-77
2022/08/20 01:57:55;;;;;;;7.75;6.18;;;;;;;18.75;91.88;101423.47;5063805;28;20024;-78
2022/08/20 02:00:22;;;;;;;10.68;6.03;;;;;;;18.76;91.90;101427.81;5041974;28;20025;-77
2022/08/20 02:02:48;;;;;;;9.05;6.55;;;;;;;18.75;91.98;101429.56;5061814;28;20160;-78
2022/08/20 02:05:13;;;;;;;9.38;6.25;;;;;;;18.75;91.89;101434.00;5060719;28;20886;-77
2022/08/20 02:07:39;;;;;;;9.52;6.78;;;;;;;18.73;91.49;101431.44;5063200;28;20024;-77
2022/08/20 02:10:07;;;;;;;8.13;6.13;;;;;;;18.71;91.68;101429.81;5055154;28;20029;-78
2022/08/20 02:12:34;;;;;;;9.05;6.55;;;;;;;18.72;91.52;101426.25;5059377;28;20036;-77
2022/08/20 02:15:00;;;;;;;8.05;6.60;;;;;;;18.71;91.64;101437.72;5061107;28;20032;-77
2022/08/20 02:17:26;;;;;;;7.93;6.35;;;;;;;18.69;91.74;101434.31;5062620;28;20031;-78
2022/08/20 02:19:56;;;;;;;7.57;6.07;;;;;;;18.68;91.51;101432.59;5061171;28;20383;-78
2022/08/20 02:22:40;;;;;;;8.55;6.47;;;;;;;18.69;91.68;101436.94;5060446;28;20277;-78
2022/08/20 02:25:08;;;;;;;8.35;6.53;;;;;;;18.65;91.41;101433.63;5056660;28;20035;-77
2022/08/20 02:27:34;;;;;;;9.73;6.90;;;;;;;18.66;91.77;101438.78;5059756;28;20051;-78
2022/08/20 02:30:00;;;;;;;8.98;6.82;;;;;;;18.67;91.50;101439.66;5059084;28;20114;-77
2022/08/20 02:32:25;;;;;;;9.23;6.93;;;;;;;18.68;91.41;101432.59;5061747;28;20494;-77
2022/08/20 02:34:51;;;;;;;8.88;7.20;;;;;;;18.66;91.96;101436.16;5057843;28;20119;-77
2022/08/20 02:37:17;;;;;;;11.30;7.75;;;;;;;18.65;91.94;101439.72;5057725;28;20379;-77
2022/08/20 02:39:43;;;;;;;9.52;8.20;;;;;;;18.65;91.57;101434.44;5059920;28;20524;-77
2022/08/20 02:42:10;;;;;;;10.88;8.57;;;;;;;18.62;92.01;101439.88;5063330;28;20487;-77
2022/08/20 02:44:36;;;;;;;11.93;8.43;;;;;;;18.61;92.02;101440.81;5061709;28;20020;-77
2022/08/20 02:47:01;;;;;;;12.25;8.65;;;;;;;18.61;91.97;101443.47;5058110;28;20360;-77
2022/08/20 02:49:27;;;;;;;11.27;8.98;;;;;;;18.61;91.92;101438.19;5059047;28;20120;-78
2022/08/20 02:51:52;;;;;;;12.15;8.95;;;;;;;18.61;92.21;101437.31;5060522;28;20356;-77
2022/08/20 02:54:17;;;;;;;14.55;9.50;;;;;;;18.59;92.19;101440.06;5059570;28;20493;-77
2022/08/20 02:56:43;;;;;;;11.77;9.43;;;;;;;18.57;92.42;101444.53;5055582;28;20379;-77
2022/08/20 02:59:08;;;;;;;12.50;9.45;;;;;;;18.56;92.08;101442.84;5060191;28;20079;-77
2022/08/20 03:01:35;;;;;;;11.55;9.02;;;;;;;18.57;92.32;101444.53;5057496;28;20033;-78
2022/08/20 03:04:02;;;;;;;13.65;9.75;;;;;;;18.58;92.18;101448.88;5056992;28;20392;-77
2022/08/20 03:06:28;;;;;;;10.65;9.07;;;;;;;18.58;92.49;101443.63;5044231;28;20110;-77
2022/08/20 03:08:53;;;;;;;10.93;8.93;;;;;;;18.59;92.64;101447.97;5060909;28;20688;-77
2022/08/20 03:11:19;;;;;;;13.70;9.32;;;;;;;18.60;92.56;101440.88;5059805;28;20052;-77
2022/08/20 03:13:45;;;;;;;12.13;9.30;;;;;;;18.59;92.54;101434.78;5063571;28;20483;-77
2022/08/20 03:16:11;;;;;;;11.68;8.98;;;;;;;18.61;92.10;101432.06;5057752;28;20028;-77
2022/08/20 03:18:42;;;;;;;11.95;8.85;;;;;;;18.62;92.52;101441.66;5057022;28;20120;-77
2022/08/20 03:21:09;;;;;;;11.80;8.95;;;;;;;18.61;92.23;101438.19;5055633;28;20499;-77
2022/08/20 03:23:36;;;;;;;12.25;8.98;;;;;;;18.63;92.57;101441.56;5057227;28;20021;-77
2022/08/20 03:26:04;;;;;;;12.68;9.73;;;;;;;18.64;92.95;101443.28;5057883;28;20036;-78
2022/08/20 03:28:29;;;;;;;11.82;9.02;;;;;;;18.64;92.91;101435.38;5062791;28;20507;-77
2022/08/20 03:30:55;;;;;;;14.35;9.38;;;;;;;18.65;92.52;101442.34;5057380;28;20173;-77
2022/08/20 03:33:21;;;;;;;13.18;9.18;;;;;;;18.66;92.28;101456.41;5061895;28;20466;-77
2022/08/20 03:35:47;;;;;;;14.80;10.00;;;;;;;18.64;92.47;101448.56;5058881;28;20077;-77
2022/08/20 03:38:16;;;;;;;14.23;9.50;;;;;;;18.62;92.18;101447.78;5063124;28;20027;-77
2022/08/20 03:40:42;;;;;;;12.10;9.63;;;;;;;18.62;92.34;101449.56;5056705;28;20074;-77
2022/08/20 03:43:08;;;;;;;11.90;9.02;;;;;;;18.63;92.67;101451.28;5059571;28;20036;-77
2022/08/20 03:45:36;;;;;;;14.43;9.40;;;;;;;18.62;92.78;101449.56;5060781;28;20013;-77
2022/08/20 03:48:03;;;;;;;13.63;9.73;;;;;;;18.62;92.60;101454.84;5057185;28;20025;-77
2022/08/20 03:50:30;;;;;;;19.48;9.93;;;;;;;18.62;92.57;101454.84;5061454;28;20290;-77
2022/08/20 03:52:56;;;;;;;12.90;9.77;;;;;;;18.61;92.58;101453.13;5061826;28;20028;-77
2022/08/20 03:55:23;;;;;;;16.52;9.98;;;;;;;18.60;92.04;101447.03;5064233;28;20037;-77
2022/08/20 03:57:51;;;;;;;18.20;9.93;;;;;;;18.59;92.23;101450.59;5060225;28;20055;-77
2022/08/20 04:00:29;;;;;;;17.15;10.65;;;;;;;18.59;91.97;101445.31;5060370;28;20081;-77
2022/08/20 04:02:55;;;;;;;16.83;11.25;;;;;;;18.58;91.86;101448.88;5059910;28;20399;-77
2022/08/20 04:05:22;;;;;;;17.10;12.13;;;;;;;18.58;91.73;101448.88;5060616;28;20037;-77
2022/08/20 04:07:48;;;;;;;18.63;12.73;;;;;;;18.57;91.84;101454.22;5060777;28;20107;-77
2022/08/20 04:10:13;;;;;;;20.63;12.43;;;;;;;18.56;91.60;101452.50;5063461;28;20506;-77
2022/08/20 04:12:39;;;;;;;17.98;13.15;;;;;;;18.55;91.53;101458.69;5056984;28;20074;-77
2022/08/20 04:15:11;;;;;;;24.30;13.93;;;;;;;18.52;91.45;101454.44;5057864;28;20028;-77
2022/08/20 04:17:37;;;;;;;;;;;;;;;18.57;90.15;101460.34;5059464;28;20076;-77
2022/08/20 04:20:04;;;;;;;21.77;12.77;;;;;;;18.47;91.04;101453.81;5042832;28;19913;-77
2022/08/20 04:22:29;;;;;;;25.00;13.90;;;;;;;18.47;90.94;101466.97;5063285;28;20102;-77
2022/08/20 04:24:55;;;;;;;19.55;13.70;;;;;;;18.45;91.33;101480.25;5061371;28;20222;-77
2022/08/20 04:27:20;;;;;;;23.35;14.88;;;;;;;18.44;91.22;101473.28;5063363;28;20490;-77
2022/08/20 04:29:45;;;;;;;21.50;15.38;;;;;;;18.44;90.80;101467.16;5062959;28;20024;-77
2022/08/20 04:32:11;;;;;;;21.65;14.70;;;;;;;18.42;90.85;101469.00;5047019;28;20036;-77
2022/08/20 04:34:37;;;;;;;27.42;15.65;;;;;;;18.39;90.86;101472.63;5059358;28;20033;-77
2022/08/20 04:37:03;;;;;;;23.42;15.20;;;;;;;18.39;90.84;101474.44;5066537;28;20028;-77
2022/08/20 04:39:28;;;;;;;26.17;15.40;;;;;;;18.38;91.15;101478.00;5049177;28;20435;-77
2022/08/20 04:41:53;;;;;;;24.33;15.70;;;;;;;18.37;90.94;101481.53;5061098;28;20033;-77
2022/08/20 04:44:20;;;;;;;23.80;15.68;;;;;;;18.36;91.26;101483.31;5063157;28;20488;-77
2022/08/20 04:46:45;;;;;;;24.73;15.75;;;;;;;18.33;91.33;101492.22;5060446;28;20025;-77
2022/08/20 04:49:11;;;;;;;25.00;15.75;;;;;;;18.33;91.50;101486.97;5062839;28;20077;-77
2022/08/20 04:51:36;;;;;;;25.50;16.38;;;;;;;18.32;91.25;101493.16;5063469;28;20024;-77
2022/08/20 04:54:02;;;;;;;26.33;15.88;;;;;;;18.32;91.38;101495.78;5061072;28;21570;-77
2022/08/20 04:56:31;;;;;;;25.13;16.45;;;;;;;18.32;90.97;101500.22;5066798;28;20495;-77
2022/08/20 04:58:59;;;;;;;28.70;16.55;;;;;;;18.30;91.13;101502.91;5059611;28;20384;-77
2022/08/20 05:01:25;;;;;;;28.58;17.58;;;;;;;18.28;91.18;101498.66;5061099;28;20028;-77
2022/08/20 05:03:55;;;;;;;30.25;17.27;;;;;;;18.26;90.72;101509.25;5059528;28;20025;-77
2022/08/20 05:06:24;;;;;;;29.13;17.23;;;;;;;18.26;90.92;101505.75;5059651;28;20020;-77
2022/08/20 05:08:49;;;;;;;28.23;17.15;;;;;;;18.24;90.92;101510.25;5059912;28;20352;-77
2022/08/20 05:11:15;;;;;;;27.77;17.60;;;;;;;18.21;90.94;101516.53;5060981;28;20518;-77
2022/08/20 05:13:41;;;;;;;29.02;17.80;;;;;;;18.21;90.94;101519.16;5060271;28;20111;-77
2022/08/20 05:16:07;;;;;;;26.88;17.00;;;;;;;18.19;90.86;101521.00;5045030;28;20436;-77
2022/08/20 05:18:33;;;;;;;26.67;16.65;;;;;;;18.18;91.03;101514.03;5061624;28;20056;-77
2022/08/20 05:21:04;;;;;;;27.23;16.85;;;;;;;18.17;90.85;101520.22;5062136;28;20362;-77
2022/08/20 05:23:29;;;;;;;26.00;17.25;;;;;;;18.16;90.44;101519.38;5042603;28;20025;-77
2022/08/20 05:25:56;;;;;;;29.88;17.25;;;;;;;18.12;89.81;101517.81;5061530;28;20374;-77
2022/08/20 05:28:31;;;;;;;23.90;16.42;;;;;;;18.11;90.19;101525.75;5062162;28;20035;-77
2022/08/20 05:30:58;;;;;;;24.80;16.33;;;;;;;18.07;89.66;101521.59;5047754;28;20028;-77
2022/08/20 05:33:24;;;;;;;22.48;15.35;;;;;;;18.03;89.27;101532.25;5062205;28;20032;-76
2022/08/20 05:35:51;;;;;;;24.80;15.40;;;;;;;18.02;89.54;101524.41;5056349;28;20032;-77
2022/08/20 05:38:19;;;;;;;23.08;14.88;;;;;;;17.99;89.67;101528.06;5061632;28;20440;-77
2022/08/20 05:40:45;;;;;;;22.48;14.68;;;;;;;17.99;89.52;101520.16;5059871;28;20028;-77
2022/08/20 05:43:11;;;;;;;25.15;15.30;;;;;;;17.99;89.11;101535.09;5063636;28;20025;-77
2022/08/20 05:45:40;;;;;;;22.83;14.73;;;;;;;17.97;89.33;101532.50;5044587;28;20111;-76
2022/08/20 05:48:07;;;;;;;22.73;14.65;;;;;;;17.96;89.56;101541.31;5058515;28;20032;-77
2022/08/20 05:50:34;;;;;;;24.75;14.85;;;;;;;17.98;89.72;101533.41;5062421;28;20043;-77
2022/08/20 05:53:00;;;;;;;25.60;14.88;;;;;;;17.99;89.72;101533.31;5059869;28;20020;-77
2022/08/20 05:55:25;;;;;;;23.50;14.10;;;;;;;17.99;89.32;101535.94;5066600;28;20475;-77
2022/08/20 05:57:59;;;;;;;23.05;14.23;;;;;;;18.00;89.51;101535.03;5061258;28;20032;-76
2022/08/20 06:00:25;;;;;;;20.55;13.55;;;;;;;18.02;89.16;101532.31;5057347;28;20111;-77
2022/08/20 06:05:34;;;;;;;23.80;15.13;;;;;;;17.99;88.93;101538.56;5063458;28;20032;-77
2022/08/20 06:07:59;;;;;;;22.40;14.90;;;;;;;17.98;88.89;101547.41;5060938;28;20028;-76
2022/08/20 06:10:25;;;;;;;22.42;15.32;;;;;;;17.98;89.41;101543.94;5061789;28;20063;-77
2022/08/20 06:12:52;;;;;;;23.02;15.82;;;;;;;17.97;88.81;101545.66;5063491;28;20444;-77
2022/08/20 06:15:17;;;;;;;23.50;15.75;;;;;;;17.98;89.36;101543.94;5059756;28;20037;-76
2022/08/20 06:17:42;;;;;;;28.00;16.45;;;;;;;17.99;88.77;101545.63;5061420;28;20032;-77
2022/08/20 06:20:09;;;;;;;23.15;16.13;;;;;;;18.01;89.32;101547.28;5043858;28;20021;-76
2022/08/20 06:22:34;;;;;;;23.25;16.60;;;;;;;18.03;89.41;101542.78;5061786;28;20066;-77
2022/08/20 06:25:00;;;;;;;23.85;16.38;;;;;;;18.06;88.92;101541.78;5062273;28;20063;-77
2022/08/20 06:27:26;;;;;;;24.75;17.33;;;;;;;18.04;89.05;101544.50;5059396;28;20178;-77
2022/08/20 06:29:52;;;;;;;26.00;16.30;;;;;;;18.05;89.23;101542.69;5062037;28;20519;-77
2022/08/20 06:32:20;;;;;;;23.45;16.23;;;;;;;18.07;89.41;101540.03;5057685;28;20036;-76
2022/08/20 06:34:45;;;;;;;25.75;16.45;;;;;;;18.10;89.38;101550.41;5058677;28;20060;-77
2022/08/20 06:37:15;;;;;;;24.73;16.52;;;;;;;18.17;89.59;101554.47;5061870;28;20056;-77
2022/08/20 06:39:41;;;;;;;24.85;16.45;;;;;;;18.24;89.62;101545.34;5057966;28;20036;-77
2022/08/20 06:42:06;;;;;;;23.77;17.15;;;;;;;18.29;89.04;101545.13;5060204;28;20033;-77
2022/08/20 06:44:32;;;;;;;23.27;17.42;;;;;;;18.31;89.28;101544.13;5063285;28;20039;-76
2022/08/20 06:47:02;;;;;;;25.27;17.90;;;;;;;18.33;88.88;101544.91;5059059;28;20012;-76
2022/08/20 06:49:28;;;;;;;26.02;18.38;;;;;;;18.37;88.53;101544.78;5060266;28;20045;-76
2022/08/20 06:51:53;;;;;;;28.67;18.50;;;;;;;18.40;89.17;101549.91;5060046;28;20042;-77
2022/08/20 06:54:18;;;;;;;30.05;19.15;;;;;;;18.42;88.74;101553.31;5059481;28;20025;-77
2022/08/20 06:56:43;;;;;;;27.63;18.52;;;;;;;18.42;88.25;101548.06;5042630;28;20502;-77
2022/08/20 06:59:09;;;;;;;26.60;18.52;;;;;;;18.41;87.91;101552.44;5061515;28;20025;-77
2022/08/20 07:01:34;;;;;;;28.77;17.73;;;;;;;18.40;88.08;101548.09;5054711;28;20051;-76
2022/08/20 07:04:00;;;;;;;26.88;17.55;;;;;;;18.40;87.97;101547.25;5053497;28;20036;-76
2022/08/20 07:06:26;;;;;;;25.23;17.83;;;;;;;18.40;88.04;101549.91;5054343;28;20031;-76
2022/08/20 07:08:52;;;;;;;27.73;19.15;;;;;;;18.39;88.19;101549.03;5057665;28;20029;-77
2022/08/20 07:11:17;;;;;;;26.25;17.92;;;;;;;18.42;88.52;101559.44;5057078;28;20049;-77
2022/08/20 07:13:42;;;;;;;29.75;18.55;;;;;;;18.47;88.32;101559.19;5056777;28;20028;-78
2022/08/20 07:16:08;;;;;;;26.70;17.60;;;;;;;18.48;87.45;101566.19;5058163;28;20033;-79
2022/08/20 07:18:33;;;;;;;29.55;18.23;;;;;;;18.47;87.61;101564.47;5060351;28;20032;-77
2022/08/20 07:20:58;;;;;;;31.15;18.30;;;;;;;18.48;87.27;101569.69;5059271;28;21213;-77
2022/08/20 07:23:25;;;;;;;28.45;18.60;;;;;;;18.47;87.59;101565.34;5059712;28;20056;-77
2022/08/20 07:25:51;;;;;;;27.70;17.58;;;;;;;18.49;87.84;101573.16;5059316;28;20086;-77
2022/08/20 07:28:20;;;;;;;25.35;16.95;;;;;;;18.50;87.97;101575.75;5059385;28;20191;-77
2022/08/20 07:33:33;;;;;;;25.25;16.25;;;;;;;18.53;87.76;101576.53;5058594;28;20056;-76
2022/08/20 07:36:02;;;;;;;23.95;16.05;;;;;;;18.56;87.43;101582.50;5058637;28;20021;-77
2022/08/20 07:38:29;;;;;;;24.20;15.90;;;;;;;18.68;87.59;101580.19;5040846;28;20071;-77
2022/08/20 07:41:01;;;;;;;22.67;15.45;;;;;;;18.77;87.69;101585.88;5059832;28;20024;-77
2022/08/20 07:43:27;;;;;;;27.20;16.30;;;;;;;18.87;88.21;101575.72;5041209;28;21497;-77
2022/08/20 07:45:56;;;;;;;24.02;15.07;;;;;;;18.96;87.37;101585.00;5057539;28;20029;-76
2022/08/20 07:48:26;;;;;;;16.77;12.45;;;;;;;18.98;84.88;101588.41;5040193;28;20111;-76
2022/08/20 07:50:57;;;;;;;18.03;12.50;;;;;;;18.99;85.19;101592.75;5058629;28;20356;-76
2022/08/20 07:53:22;;;;;;;19.38;13.20;;;;;;;19.03;84.87;101601.38;5058520;28;20024;-76
2022/08/20 07:55:48;;;;;;;17.45;12.77;;;;;;;19.01;84.01;101605.88;5056139;28;20039;-76
2022/08/20 07:58:17;;;;;;;16.50;11.50;;;;;;;18.93;84.66;101599.16;5059497;28;20036;-76
2022/08/20 08:00:42;;;;;;;17.77;12.23;;;;;;;18.93;84.45;101604.44;5063348;28;20114;-77
2022/08/20 08:03:08;;;;;;;18.30;11.32;;;;;;;18.98;83.09;101603.38;5062338;28;20167;-76
2022/08/20 08:05:37;;;;;;;17.85;11.65;;;;;;;19.07;83.70;101605.56;5063529;28;20766;-77
2022/08/20 08:08:05;;;;;;;18.70;11.57;;;;;;;19.14;83.14;101609.59;5063814;28;20031;-76
2022/08/20 08:10:31;;;;;;;16.55;12.15;;;;;;;19.23;84.77;101613.56;5061837;28;20375;-77
2022/08/20 08:13:01;;;;;;;15.02;10.77;;;;;;;19.19;81.19;101615.50;5063566;28;20581;-77
2022/08/20 08:15:30;;;;;;;14.75;10.63;;;;;;;19.13;82.40;101607.88;5062324;28;20043;-77
2022/08/20 08:18:11;;;;;;;14.07;9.77;;;;;;;19.13;81.62;101610.53;5062983;28;20201;-77
2022/08/20 08:20:41;;;;;;;16.33;10.10;;;;;;;19.19;81.97;101607.59;5063725;28;20566;-76
2022/08/20 08:23:10;;;;;;;16.52;9.77;;;;;;;19.28;81.88;101608.06;5063955;28;20048;-77
2022/08/20 08:25:41;;;;;;;15.48;9.45;;;;;;;19.32;81.33;101601.69;5062736;28;20024;-76
2022/08/20 08:28:06;;;;;;;14.57;8.43;;;;;;;19.35;81.14;101609.44;5063515;28;20044;-76
2022/08/20 08:30:32;;;;;;;11.50;8.70;;;;;;;19.32;80.67;101612.25;5063226;28;20028;-77
2022/08/20 08:35:45;;;;;;;12.40;8.05;;;;;;;19.35;80.12;101612.09;5062689;28;20074;-76
2022/08/20 08:38:11;;;;;;;12.52;8.50;;;;;;;19.38;78.77;101611.94;5061661;28;20033;-77
2022/08/20 08:40:37;;;;;;;14.25;7.57;;;;;;;19.41;78.87;101617.91;5064269;28;20036;-76
2022/08/20 08:43:04;;;;;;;15.02;8.40;;;;;;;19.45;78.46;101617.75;5063723;28;20033;-77
2022/08/20 08:45:44;;;;;;;15.13;8.43;;;;;;;19.50;79.68;101621.03;5061300;28;20029;-76
2022/08/20 08:48:12;;;;;;;15.90;8.48;;;;;;;19.53;79.96;101627.00;5045895;28;20109;-77
2022/08/20 08:50:41;;;;;;;11.85;8.10;;;;;;;19.55;78.22;101629.56;5062383;28;20020;-76
2022/08/20 08:53:09;;;;;;;13.02;8.05;;;;;;;19.55;76.92;101638.31;5041115;28;20025;-77
2022/08/20 08:55:35;;;;;;;13.80;8.23;;;;;;;19.58;78.20;101629.38;5064201;28;20476;-76
2022/08/20 08:58:02;;;;;;;11.20;7.88;;;;;;;19.60;76.96;101631.97;5060057;28;20043;-77
2022/08/20 09:00:27;;;;;;;15.50;7.95;;;;;;;19.65;77.06;101627.28;5059834;28;20028;-77
2022/08/20 09:03:01;;;;;;;15.65;7.75;;;;;;;19.68;76.00;101640.34;5061249;28;20407;-75
2022/08/20 09:05:37;;;;;;;11.45;7.30;;;;;;;19.62;76.61;101635.38;5061136;28;20562;-76
2022/08/20 09:08:05;;;;;;;10.40;6.68;;;;;;;19.60;75.57;101631.97;5061569;28;20122;-75
2022/08/20 09:10:31;;;;;;;13.77;7.25;;;;;;;19.65;75.66;101629.91;5058105;28;20052;-75
2022/08/20 09:12:56;;;;;;;11.15;6.43;;;;;;;19.72;75.41;101641.88;5059747;28;20394;-76
2022/08/20 09:15:22;;;;;;;12.57;6.50;;;;;;;19.77;74.78;101644.28;5061170;28;20060;-75
2022/08/20 09:17:47;;;;;;;10.25;6.05;;;;;;;19.82;74.32;101643.09;5060194;28;20025;-75
2022/08/20 09:20:13;;;;;;;12.07;6.45;;;;;;;19.86;74.14;101649.94;5058450;28;20032;-76
2022/08/20 09:22:39;;;;;;;23.23;6.80;;;;;;;19.93;74.79;101650.50;5062744;28;20028;-75
2022/08/20 09:25:05;;;;;;;11.18;5.97;;;;;;;19.96;73.51;101660.06;5062407;28;20168;-76
2022/08/20 09:27:30;;;;;;;10.10;6.15;;;;;;;19.88;71.61;101646.41;5060883;28;20481;-75
2022/08/20 09:29:56;;;;;;;9.23;5.53;;;;;;;19.88;72.78;101651.69;5062075;28;20103;-75
2022/08/20 09:32:22;;;;;;;10.88;5.97;;;;;;;19.84;71.71;101646.53;5060813;28;20032;-76
2022/08/20 09:34:50;;;;;;;8.38;5.43;;;;;;;19.79;73.31;101643.28;5063642;28;20036;-76
2022/08/20 09:37:16;;;;;;;9.02;5.57;;;;;;;19.82;72.56;101637.81;5060509;28;20052;-76
2022/08/20 09:39:42;;;;;;;8.90;5.55;;;;;;;19.92;74.07;101632.09;5061877;28;20438;-75
2022/08/20 09:42:16;;;;;;;10.32;5.38;;;;;;;19.99;73.39;101638.75;5059996;28;20024;-75
2022/08/20 09:44:42;;;;;;;9.57;5.10;;;;;;;20.00;68.86;101645.75;5061693;28;20048;-75
2022/08/20 09:47:08;;;;;;;7.15;4.78;;;;;;;20.04;70.60;101642.00;5061542;28;20016;-75
2022/08/20 09:49:36;;;;;;;8.52;5.30;;;;;;;20.09;69.23;101645.28;5058223;28;20043;-75
2022/08/20 09:52:04;;;;;;;8.20;4.82;;;;;;;20.09;69.55;101637.34;5058366;28;20759;-76
2022/08/20 09:54:29;;;;;;;7.80;5.03;;;;;;;;;;5059329;28;20147;-75
2022/08/20 09:57:00;;;;;;;10.48;5.10;;;;;;;20.20;69.83;101635.91;5062075;28;20119;-75
2022/08/20 09:59:27;;;;;;;;;;;;;;;20.25;72.87;101640.00;5059598;28;20032;-76
2022/08/20 10:01:52;;;;;;;9.35;4.22;;;;;;;20.22;66.57;101650.75;5056708;28;19927;-76
2022/08/20 10:04:17;;;;;;;7.28;3.70;;;;;;;20.22;66.84;101634.03;5057514;28;20032;-75
2022/08/20 10:06:44;;;;;;;10.38;4.88;;;;;;;20.27;68.16;101637.28;5039015;28;20524;-75
2022/08/20 10:09:09;;;;;;;12.68;4.85;;;;;;;20.32;67.53;101638.75;5055203;28;20379;-76
2022/08/20 10:11:34;;;;;;;10.73;4.60;;;;;;;20.35;64.61;101637.72;5054657;28;20059;-75
2022/08/20 10:14:00;;;;;;;10.68;4.00;;;;;;;20.29;63.21;101648.63;5055370;28;20109;-75
2022/08/20 10:16:25;;;;;;;8.05;3.97;;;;;;;20.25;65.85;101641.81;5054519;28;20239;-75
2022/08/20 10:18:51;;;;;;;8.18;3.60;;;;;;;20.27;64.67;101637.28;5058498;28;20036;-75
2022/08/20 10:21:17;;;;;;;7.45;3.03;;;;;;;20.34;62.69;101643.09;5055317;28;20129;-75
2022/08/20 10:23:42;;;;;;;6.10;2.95;;;;;;;20.40;60.69;101643.63;5054454;28;20119;-75
2022/08/20 10:26:09;;;;;;;5.15;2.90;;;;;;;20.47;61.00;101647.63;5058747;28;20024;-75
2022/08/20 10:28:34;;;;;;;6.25;2.50;;;;;;;20.57;59.42;101649.75;5055437;28;20033;-76
2022/08/20 10:31:00;;;;;;;4.22;2.40;;;;;;;20.68;62.42;101647.38;5055531;28;20029;-76
2022/08/20 10:33:25;;;;;;;8.30;2.78;;;;;;;20.81;60.48;101644.91;5056676;28;20025;-76
2022/08/20 10:35:50;;;;;;;5.38;2.40;;;;;;;20.98;59.26;101651.06;5060075;28;20029;-75
2022/08/20 10:38:16;;;;;;;7.07;2.83;;;;;;;21.11;59.53;101645.91;5058959;28;20039;-75
2022/08/20 10:40:41;;;;;;;7.63;2.95;;;;;;;21.24;60.10;101649.56;5056003;28;20039;-76
2022/08/20 10:43:06;;;;;;;8.48;3.10;;;;;;;21.27;59.53;101648.50;5049225;28;20040;-76
2022/08/20 10:45:32;;;;;;;8.60;3.25;;;;;;;21.20;59.48;101651.53;5057089;28;20036;-76
2022/08/20 10:47:58;;;;;;;8.15;3.00;;;;;;;21.10;59.26;101652.97;5058796;28;20032;-76
2022/08/20 10:50:24;;;;;;;8.32;3.05;;;;;;;21.02;59.83;101653.44;5055501;28;20447;-75
2022/08/20 10:52:49;;;;;;;7.45;2.85;;;;;;;20.92;58.38;101652.25;5036571;28;20081;-75
2022/08/20 10:55:15;;;;;;;7.13;2.78;;;;;;;20.81;56.67;101660.78;5055611;28;20063;-76
2022/08/20 10:57:41;;;;;;;4.72;2.00;;;;;;;20.68;56.79;101657.94;5054958;28;20386;-75
2022/08/20 11:00:09;;;;;;;5.43;1.90;;;;;;;20.60;57.18;101652.25;5056663;28;20041;-75
2022/08/20 11:02:34;;;;;;;4.72;1.80;;;;;;;20.54;56.79;101655.22;5050482;28;20032;-76
2022/08/20 11:04:59;;;;;;;5.47;2.05;;;;;;;20.55;57.67;101651.63;5054571;28;20035;-76
2022/08/20 11:07:29;;;;;;;4.82;1.67;;;;;;;20.62;58.97;101653.84;5052997;28;20056;-75
2022/08/20 11:09:54;;;;;;;6.15;1.88;;;;;;;20.72;54.42;101653.34;5054316;28;20032;-75
2022/08/20 11:12:20;;;;;;;7.07;1.85;;;;;;;20.88;57.18;101650.72;5057378;28;20047;-75
2022/08/20 11:14:47;;;;;;;6.50;1.90;;;;;;;20.99;55.57;101642.19;5058363;28;20562;-75
2022/08/20 11:17:18;;;;;;;9.13;1.85;;;;;;;21.11;57.21;101653.84;5057740;28;20074;-76
2022/08/20 11:19:43;;;;;;;;;;;;;;;21.20;60.19;101642.72;5055951;28;20032;-75
2022/08/20 11:22:10;;;;;;;8.25;1.85;;;;;;;21.27;56.54;101649.38;5059160;28;19920;-79
2022/08/20 11:24:37;;;;;;;4.90;1.70;;;;;;;21.33;57.08;101649.03;5056822;28;20036;-75
2022/08/20 11:27:04;;;;;;;5.43;1.83;;;;;;;21.35;54.47;101656.88;5057330;28;20031;-75
2022/08/20 11:29:29;;;;;;;6.35;1.80;;;;;;;21.36;56.57;101648.81;5034591;28;20029;-75